Nelvik, North Dakota
Current Conditions -  °F | °C
As of 10:55 AM on Saturday 25 Oct 2014 (Local Time) from K7L2 Reporting Station
Clear Clear  
Wind Chill: 50°   Ceiling: Unl
Heat Index: 50°   Visibility: 10mi
Dew Point: 34°   Wind: 0mph
Humidity: 54%   Direction: NA
Pressure: 30.17"   Gusts: NA
Location:  46.0926°N, 99.1856°W
Report Text: K7L2 251555Z AUTO 00000KT 10SM CLR 10/01 A3017 RMK AO2 PWINO PNO
Loading
Personal Weather Stations






























Interactive Weather Map
Tropical Storm Tracking
New forecast layout! Learn more

10-Day Weather Forecast

Advertisements
Track Severe Weather on mobile